sensor_id;sensor_type;location;lat;lon;timestamp;P1;durP1;ratioP1;P2;durP2;ratioP2
789;SDS011;378;48.844;9.156;2024-03-17T00:01:01;8.48;;;5.68;;
789;SDS011;378;48.844;9.156;2024-03-17T00:03:30;12.57;;;6.47;;
789;SDS011;378;48.844;9.156;2024-03-17T00:06:02;9.75;;;6.03;;
789;SDS011;378;48.844;9.156;2024-03-17T00:08:30;9.18;;;5.57;;
789;SDS011;378;48.844;9.156;2024-03-17T00:10:56;9.50;;;6.05;;
789;SDS011;378;48.844;9.156;2024-03-17T00:13:23;9.80;;;5.47;;
789;SDS011;378;48.844;9.156;2024-03-17T00:15:49;9.25;;;6.07;;
789;SDS011;378;48.844;9.156;2024-03-17T00:18:16;9.55;;;6.40;;
789;SDS011;378;48.844;9.156;2024-03-17T00:20:42;14.48;;;6.95;;
789;SDS011;378;48.844;9.156;2024-03-17T00:23:11;8.65;;;5.72;;
789;SDS011;378;48.844;9.156;2024-03-17T00:25:37;9.90;;;5.82;;
789;SDS011;378;48.844;9.156;2024-03-17T00:28:05;10.52;;;5.75;;
789;SDS011;378;48.844;9.156;2024-03-17T00:30:31;9.95;;;5.32;;
789;SDS011;378;48.844;9.156;2024-03-17T00:32:57;14.07;;;6.18;;
789;SDS011;378;48.844;9.156;2024-03-17T00:35:24;9.82;;;5.47;;
789;SDS011;378;48.844;9.156;2024-03-17T00:37:50;11.75;;;7.88;;
789;SDS011;378;48.844;9.156;2024-03-17T00:40:20;15.07;;;8.10;;
789;SDS011;378;48.844;9.156;2024-03-17T00:42:48;9.05;;;6.75;;
789;SDS011;378;48.844;9.156;2024-03-17T00:45:15;9.15;;;6.28;;
789;SDS011;378;48.844;9.156;2024-03-17T00:47:41;10.25;;;7.05;;
789;SDS011;378;48.844;9.156;2024-03-17T00:50:08;9.27;;;6.15;;
789;SDS011;378;48.844;9.156;2024-03-17T00:52:36;10.55;;;6.18;;
789;SDS011;378;48.844;9.156;2024-03-17T00:55:05;11.00;;;6.47;;
789;SDS011;378;48.844;9.156;2024-03-17T00:57:34;9.90;;;6.30;;
789;SDS011;378;48.844;9.156;2024-03-17T01:00:03;13.23;;;6.72;;
789;SDS011;378;48.844;9.156;2024-03-17T01:02:31;9.50;;;6.30;;
789;SDS011;378;48.844;9.156;2024-03-17T01:04:58;12.32;;;6.10;;
789;SDS011;378;48.844;9.156;2024-03-17T01:07:24;10.75;;;6.80;;
789;SDS011;378;48.844;9.156;2024-03-17T01:09:51;13.35;;;7.93;;
789;SDS011;378;48.844;9.156;2024-03-17T01:12:20;12.30;;;8.40;;
789;SDS011;378;48.844;9.156;2024-03-17T01:14:46;17.65;;;12.48;;
789;SDS011;378;48.844;9.156;2024-03-17T01:17:15;13.57;;;11.73;;
789;SDS011;378;48.844;9.156;2024-03-17T01:19:41;13.80;;;9.93;;
789;SDS011;378;48.844;9.156;2024-03-17T01:22:07;11.05;;;7.47;;
789;SDS011;378;48.844;9.156;2024-03-17T01:24:33;12.30;;;8.45;;
789;SDS011;378;48.844;9.156;2024-03-17T01:27:00;12.68;;;8.23;;
789;SDS011;378;48.844;9.156;2024-03-17T01:29:27;10.20;;;7.32;;
789;SDS011;378;48.844;9.156;2024-03-17T01:31:53;12.38;;;7.28;;
789;SDS011;378;48.844;9.156;2024-03-17T01:34:19;11.43;;;7.00;;
789;SDS011;378;48.844;9.156;2024-03-17T01:36:45;12.45;;;7.05;;
789;SDS011;378;48.844;9.156;2024-03-17T01:39:15;10.55;;;6.45;;
789;SDS011;378;48.844;9.156;2024-03-17T01:41:43;11.82;;;6.20;;
789;SDS011;378;48.844;9.156;2024-03-17T01:44:24;10.50;;;6.20;;
789;SDS011;378;48.844;9.156;2024-03-17T01:46:51;13.15;;;5.70;;
789;SDS011;378;48.844;9.156;2024-03-17T01:49:18;11.43;;;6.40;;
789;SDS011;378;48.844;9.156;2024-03-17T01:51:48;11.43;;;6.25;;
789;SDS011;378;48.844;9.156;2024-03-17T01:54:15;11.05;;;6.68;;
789;SDS011;378;48.844;9.156;2024-03-17T01:56:42;10.63;;;6.60;;
789;SDS011;378;48.844;9.156;2024-03-17T01:59:09;10.05;;;6.45;;
789;SDS011;378;48.844;9.156;2024-03-17T02:01:36;12.68;;;7.03;;
789;SDS011;378;48.844;9.156;2024-03-17T02:04:04;13.63;;;7.38;;
789;SDS011;378;48.844;9.156;2024-03-17T02:06:31;11.40;;;6.75;;
789;SDS011;378;48.844;9.156;2024-03-17T02:08:57;13.23;;;7.72;;
789;SDS011;378;48.844;9.156;2024-03-17T02:11:25;15.45;;;6.95;;
789;SDS011;378;48.844;9.156;2024-03-17T02:13:59;13.13;;;7.15;;
789;SDS011;378;48.844;9.156;2024-03-17T02:16:26;13.75;;;6.68;;
789;SDS011;378;48.844;9.156;2024-03-17T02:18:55;12.68;;;6.72;;
789;SDS011;378;48.844;9.156;2024-03-17T02:21:22;12.02;;;6.05;;
789;SDS011;378;48.844;9.156;2024-03-17T02:23:50;9.38;;;5.95;;
789;SDS011;378;48.844;9.156;2024-03-17T02:26:17;11.23;;;6.22;;
789;SDS011;378;48.844;9.156;2024-03-17T02:28:44;10.02;;;5.90;;
789;SDS011;378;48.844;9.156;2024-03-17T02:31:12;9.75;;;5.60;;
789;SDS011;378;48.844;9.156;2024-03-17T02:33:40;10.90;;;6.20;;
789;SDS011;378;48.844;9.156;2024-03-17T02:36:06;9.30;;;6.07;;
789;SDS011;378;48.844;9.156;2024-03-17T02:38:33;11.20;;;6.63;;
789;SDS011;378;48.844;9.156;2024-03-17T02:41:18;10.63;;;6.65;;
789;SDS011;378;48.844;9.156;2024-03-17T02:43:44;12.45;;;6.70;;
789;SDS011;378;48.844;9.156;2024-03-17T02:46:20;9.50;;;6.32;;
789;SDS011;378;48.844;9.156;2024-03-17T02:48:52;10.30;;;5.97;;
789;SDS011;378;48.844;9.156;2024-03-17T02:51:21;10.85;;;6.60;;
789;SDS011;378;48.844;9.156;2024-03-17T02:53:49;10.98;;;6.60;;
789;SDS011;378;48.844;9.156;2024-03-17T02:56:16;15.70;;;7.22;;
789;SDS011;378;48.844;9.156;2024-03-17T02:58:43;11.30;;;6.97;;
789;SDS011;378;48.844;9.156;2024-03-17T03:01:14;12.75;;;6.68;;
789;SDS011;378;48.844;9.156;2024-03-17T03:03:41;10.27;;;6.32;;
789;SDS011;378;48.844;9.156;2024-03-17T03:06:07;11.73;;;6.78;;
789;SDS011;378;48.844;9.156;2024-03-17T03:08:37;11.80;;;6.95;;
789;SDS011;378;48.844;9.156;2024-03-17T03:11:09;18.55;;;7.13;;
789;SDS011;378;48.844;9.156;2024-03-17T03:13:39;12.75;;;6.82;;
789;SDS011;378;48.844;9.156;2024-03-17T03:16:07;14.05;;;7.68;;
789;SDS011;378;48.844;9.156;2024-03-17T03:18:34;15.10;;;7.85;;
789;SDS011;378;48.844;9.156;2024-03-17T03:21:00;12.50;;;7.72;;
789;SDS011;378;48.844;9.156;2024-03-17T03:23:26;14.25;;;7.28;;
789;SDS011;378;48.844;9.156;2024-03-17T03:25:58;11.48;;;6.40;;
789;SDS011;378;48.844;9.156;2024-03-17T03:28:26;13.45;;;7.13;;
789;SDS011;378;48.844;9.156;2024-03-17T03:30:52;10.75;;;6.10;;
789;SDS011;378;48.844;9.156;2024-03-17T03:33:19;10.85;;;6.28;;
789;SDS011;378;48.844;9.156;2024-03-17T03:35:45;11.18;;;6.18;;
789;SDS011;378;48.844;9.156;2024-03-17T03:38:12;9.90;;;6.18;;
789;SDS011;378;48.844;9.156;2024-03-17T03:40:39;11.68;;;5.97;;
789;SDS011;378;48.844;9.156;2024-03-17T03:43:05;11.35;;;6.95;;
789;SDS011;378;48.844;9.156;2024-03-17T03:45:31;13.68;;;6.35;;
789;SDS011;378;48.844;9.156;2024-03-17T03:47:58;9.95;;;6.20;;
789;SDS011;378;48.844;9.156;2024-03-17T03:50:24;12.57;;;5.95;;
789;SDS011;378;48.844;9.156;2024-03-17T03:52:50;10.98;;;6.28;;
789;SDS011;378;48.844;9.156;2024-03-17T03:55:16;10.65;;;6.10;;
789;SDS011;378;48.844;9.156;2024-03-17T03:57:44;11.05;;;6.13;;
789;SDS011;378;48.844;9.156;2024-03-17T04:00:13;10.82;;;6.38;;
789;SDS011;378;48.844;9.156;2024-03-17T04:02:39;10.32;;;6.20;;
789;SDS011;378;48.844;9.156;2024-03-17T04:05:09;7.38;;;5.25;;
789;SDS011;378;48.844;9.156;2024-03-17T04:07:36;8.82;;;5.57;;
789;SDS011;378;48.844;9.156;2024-03-17T04:10:03;9.50;;;6.32;;
789;SDS011;378;48.844;9.156;2024-03-17T04:12:30;9.50;;;5.65;;
789;SDS011;378;48.844;9.156;2024-03-17T04:14:58;9.32;;;5.65;;
789;SDS011;378;48.844;9.156;2024-03-17T04:17:25;7.85;;;5.50;;
789;SDS011;378;48.844;9.156;2024-03-17T04:19:52;7.63;;;5.13;;
789;SDS011;378;48.844;9.156;2024-03-17T04:22:19;6.57;;;4.47;;
789;SDS011;378;48.844;9.156;2024-03-17T04:24:47;7.25;;;4.85;;
789;SDS011;378;48.844;9.156;2024-03-17T04:27:21;8.43;;;5.03;;
789;SDS011;378;48.844;9.156;2024-03-17T04:29:49;7.43;;;4.60;;
789;SDS011;378;48.844;9.156;2024-03-17T04:32:15;7.85;;;5.35;;
789;SDS011;378;48.844;9.156;2024-03-17T04:34:41;8.70;;;5.22;;
789;SDS011;378;48.844;9.156;2024-03-17T04:37:09;7.05;;;4.57;;
789;SDS011;378;48.844;9.156;2024-03-17T04:39:38;7.60;;;5.20;;
789;SDS011;378;48.844;9.156;2024-03-17T04:42:08;9.45;;;4.82;;
789;SDS011;378;48.844;9.156;2024-03-17T04:44:34;7.03;;;4.45;;
789;SDS011;378;48.844;9.156;2024-03-17T04:47:00;8.30;;;5.22;;
789;SDS011;378;48.844;9.156;2024-03-17T04:49:27;6.75;;;5.22;;
789;SDS011;378;48.844;9.156;2024-03-17T04:51:53;6.97;;;5.28;;
789;SDS011;378;48.844;9.156;2024-03-17T04:54:19;8.77;;;5.47;;
789;SDS011;378;48.844;9.156;2024-03-17T04:56:45;9.10;;;5.57;;
789;SDS011;378;48.844;9.156;2024-03-17T04:59:12;9.57;;;5.88;;
789;SDS011;378;48.844;9.156;2024-03-17T05:01:38;7.18;;;4.75;;
789;SDS011;378;48.844;9.156;2024-03-17T05:04:04;8.70;;;5.60;;
789;SDS011;378;48.844;9.156;2024-03-17T05:06:30;7.70;;;5.18;;
789;SDS011;378;48.844;9.156;2024-03-17T05:08:56;10.68;;;5.35;;
789;SDS011;378;48.844;9.156;2024-03-17T05:11:22;8.93;;;5.18;;
789;SDS011;378;48.844;9.156;2024-03-17T05:13:49;9.13;;;5.18;;
789;SDS011;378;48.844;9.156;2024-03-17T05:16:15;8.30;;;5.25;;
789;SDS011;378;48.844;9.156;2024-03-17T05:18:41;6.00;;;4.57;;
789;SDS011;378;48.844;9.156;2024-03-17T05:21:08;5.63;;;4.40;;
789;SDS011;378;48.844;9.156;2024-03-17T05:23:34;5.28;;;3.78;;
789;SDS011;378;48.844;9.156;2024-03-17T05:26:02;4.82;;;3.85;;
789;SDS011;378;48.844;9.156;2024-03-17T05:28:32;4.47;;;3.58;;
789;SDS011;378;48.844;9.156;2024-03-17T05:30:58;6.47;;;3.90;;
789;SDS011;378;48.844;9.156;2024-03-17T05:33:24;5.65;;;3.97;;
789;SDS011;378;48.844;9.156;2024-03-17T05:35:52;5.88;;;4.28;;
789;SDS011;378;48.844;9.156;2024-03-17T05:38:23;6.65;;;4.68;;
789;SDS011;378;48.844;9.156;2024-03-17T05:43:27;6.90;;;4.40;;
789;SDS011;378;48.844;9.156;2024-03-17T05:45:53;7.50;;;4.53;;
789;SDS011;378;48.844;9.156;2024-03-17T05:48:21;6.05;;;4.35;;
789;SDS011;378;48.844;9.156;2024-03-17T05:50:47;6.78;;;4.53;;
789;SDS011;378;48.844;9.156;2024-03-17T05:53:14;7.50;;;4.75;;
789;SDS011;378;48.844;9.156;2024-03-17T05:55:40;7.18;;;4.50;;
789;SDS011;378;48.844;9.156;2024-03-17T05:58:08;4.80;;;3.70;;
789;SDS011;378;48.844;9.156;2024-03-17T06:00:34;7.25;;;3.67;;
789;SDS011;378;48.844;9.156;2024-03-17T06:03:01;5.13;;;3.55;;
789;SDS011;378;48.844;9.156;2024-03-17T06:05:27;6.40;;;3.97;;
789;SDS011;378;48.844;9.156;2024-03-17T06:07:56;4.85;;;3.67;;
789;SDS011;378;48.844;9.156;2024-03-17T06:10:22;5.93;;;4.18;;
789;SDS011;378;48.844;9.156;2024-03-17T06:12:50;5.30;;;3.92;;
789;SDS011;378;48.844;9.156;2024-03-17T06:15:16;6.00;;;4.47;;
789;SDS011;378;48.844;9.156;2024-03-17T06:17:42;6.32;;;3.95;;
789;SDS011;378;48.844;9.156;2024-03-17T06:20:08;6.57;;;4.40;;
789;SDS011;378;48.844;9.156;2024-03-17T06:22:41;6.60;;;4.78;;
789;SDS011;378;48.844;9.156;2024-03-17T06:25:07;5.45;;;4.20;;
789;SDS011;378;48.844;9.156;2024-03-17T06:27:33;6.70;;;4.60;;
789;SDS011;378;48.844;9.156;2024-03-17T06:30:00;6.15;;;4.28;;
789;SDS011;378;48.844;9.156;2024-03-17T06:32:29;7.43;;;5.05;;
789;SDS011;378;48.844;9.156;2024-03-17T06:34:59;6.30;;;4.50;;
789;SDS011;378;48.844;9.156;2024-03-17T06:37:27;5.53;;;4.00;;
789;SDS011;378;48.844;9.156;2024-03-17T06:39:52;6.38;;;4.47;;
789;SDS011;378;48.844;9.156;2024-03-17T06:42:18;6.25;;;4.57;;
789;SDS011;378;48.844;9.156;2024-03-17T06:44:45;6.68;;;4.78;;
789;SDS011;378;48.844;9.156;2024-03-17T06:47:11;8.38;;;4.93;;
789;SDS011;378;48.844;9.156;2024-03-17T06:49:37;8.13;;;4.65;;
789;SDS011;378;48.844;9.156;2024-03-17T06:52:02;7.50;;;5.00;;
789;SDS011;378;48.844;9.156;2024-03-17T06:54:28;7.03;;;4.93;;
789;SDS011;378;48.844;9.156;2024-03-17T06:56:54;10.15;;;6.45;;
789;SDS011;378;48.844;9.156;2024-03-17T06:59:20;10.02;;;5.78;;
789;SDS011;378;48.844;9.156;2024-03-17T07:01:46;7.95;;;5.53;;
789;SDS011;378;48.844;9.156;2024-03-17T07:04:12;9.50;;;6.15;;
789;SDS011;378;48.844;9.156;2024-03-17T07:06:38;11.18;;;6.28;;
789;SDS011;378;48.844;9.156;2024-03-17T07:09:04;9.40;;;5.80;;
789;SDS011;378;48.844;9.156;2024-03-17T07:11:30;10.52;;;6.50;;
789;SDS011;378;48.844;9.156;2024-03-17T07:13:57;10.98;;;6.35;;
789;SDS011;378;48.844;9.156;2024-03-17T07:16:22;10.27;;;5.80;;
789;SDS011;378;48.844;9.156;2024-03-17T07:18:51;9.45;;;6.03;;
789;SDS011;378;48.844;9.156;2024-03-17T07:21:18;10.68;;;6.20;;
789;SDS011;378;48.844;9.156;2024-03-17T07:23:44;8.88;;;5.95;;
789;SDS011;378;48.844;9.156;2024-03-17T07:26:10;9.30;;;5.65;;
789;SDS011;378;48.844;9.156;2024-03-17T07:28:36;8.77;;;5.45;;
789;SDS011;378;48.844;9.156;2024-03-17T07:31:06;9.85;;;6.03;;
789;SDS011;378;48.844;9.156;2024-03-17T07:33:34;10.25;;;5.65;;
789;SDS011;378;48.844;9.156;2024-03-17T07:36:00;8.55;;;5.57;;
789;SDS011;378;48.844;9.156;2024-03-17T07:38:27;9.13;;;5.70;;
789;SDS011;378;48.844;9.156;2024-03-17T07:41:04;10.40;;;6.03;;
789;SDS011;378;48.844;9.156;2024-03-17T07:43:31;12.25;;;5.97;;
789;SDS011;378;48.844;9.156;2024-03-17T07:46:08;9.38;;;6.00;;
789;SDS011;378;48.844;9.156;2024-03-17T07:48:38;12.30;;;7.18;;
789;SDS011;378;48.844;9.156;2024-03-17T07:51:09;8.27;;;5.93;;
789;SDS011;378;48.844;9.156;2024-03-17T07:53:37;9.98;;;6.47;;
789;SDS011;378;48.844;9.156;2024-03-17T07:58:30;10.93;;;6.68;;
789;SDS011;378;48.844;9.156;2024-03-17T08:01:01;10.77;;;6.88;;
789;SDS011;378;48.844;9.156;2024-03-17T08:03:29;10.65;;;6.47;;
789;SDS011;378;48.844;9.156;2024-03-17T08:05:56;14.65;;;8.10;;
789;SDS011;378;48.844;9.156;2024-03-17T08:08:23;14.35;;;8.50;;
789;SDS011;378;48.844;9.156;2024-03-17T08:10:49;13.70;;;8.48;;
789;SDS011;378;48.844;9.156;2024-03-17T08:13:16;13.30;;;7.90;;
789;SDS011;378;48.844;9.156;2024-03-17T08:15:43;11.60;;;7.88;;
789;SDS011;378;48.844;9.156;2024-03-17T08:18:09;14.35;;;8.70;;
789;SDS011;378;48.844;9.156;2024-03-17T08:20:39;13.77;;;8.80;;
789;SDS011;378;48.844;9.156;2024-03-17T08:23:07;16.38;;;10.15;;
789;SDS011;378;48.844;9.156;2024-03-17T08:25:33;16.10;;;10.02;;
789;SDS011;378;48.844;9.156;2024-03-17T08:28:00;14.68;;;9.60;;
789;SDS011;378;48.844;9.156;2024-03-17T08:30:27;14.82;;;9.75;;
789;SDS011;378;48.844;9.156;2024-03-17T08:32:53;14.50;;;9.30;;
789;SDS011;378;48.844;9.156;2024-03-17T08:35:18;14.00;;;8.18;;
789;SDS011;378;48.844;9.156;2024-03-17T08:37:44;13.80;;;9.02;;
789;SDS011;378;48.844;9.156;2024-03-17T08:40:11;11.93;;;7.60;;
789;SDS011;378;48.844;9.156;2024-03-17T08:42:37;13.77;;;8.30;;
789;SDS011;378;48.844;9.156;2024-03-17T08:45:03;13.23;;;8.30;;
789;SDS011;378;48.844;9.156;2024-03-17T08:47:29;14.50;;;8.95;;
789;SDS011;378;48.844;9.156;2024-03-17T08:49:55;14.93;;;8.82;;
789;SDS011;378;48.844;9.156;2024-03-17T08:52:21;12.32;;;8.60;;
789;SDS011;378;48.844;9.156;2024-03-17T08:54:47;12.38;;;7.75;;
789;SDS011;378;48.844;9.156;2024-03-17T08:57:13;14.73;;;7.85;;
789;SDS011;378;48.844;9.156;2024-03-17T08:59:39;14.20;;;7.93;;
789;SDS011;378;48.844;9.156;2024-03-17T09:02:05;11.80;;;8.10;;
789;SDS011;378;48.844;9.156;2024-03-17T09:04:36;15.35;;;10.02;;
789;SDS011;378;48.844;9.156;2024-03-17T09:07:02;13.63;;;7.78;;
789;SDS011;378;48.844;9.156;2024-03-17T09:09:29;21.77;;;10.70;;
789;SDS011;378;48.844;9.156;2024-03-17T09:11:55;11.88;;;8.55;;
789;SDS011;378;48.844;9.156;2024-03-17T09:14:21;12.32;;;8.13;;
789;SDS011;378;48.844;9.156;2024-03-17T09:16:47;12.80;;;7.93;;
789;SDS011;378;48.844;9.156;2024-03-17T09:19:13;12.10;;;7.38;;
789;SDS011;378;48.844;9.156;2024-03-17T09:21:39;14.55;;;7.82;;
789;SDS011;378;48.844;9.156;2024-03-17T09:24:06;12.48;;;8.55;;
789;SDS011;378;48.844;9.156;2024-03-17T09:26:36;13.80;;;8.23;;
789;SDS011;378;48.844;9.156;2024-03-17T09:29:05;11.40;;;7.50;;
789;SDS011;378;48.844;9.156;2024-03-17T09:31:31;11.13;;;7.07;;
789;SDS011;378;48.844;9.156;2024-03-17T09:34:01;14.45;;;7.68;;
789;SDS011;378;48.844;9.156;2024-03-17T09:36:27;15.90;;;8.13;;
789;SDS011;378;48.844;9.156;2024-03-17T09:38:53;10.70;;;6.75;;
789;SDS011;378;48.844;9.156;2024-03-17T09:41:22;11.05;;;6.97;;
789;SDS011;378;48.844;9.156;2024-03-17T09:43:54;8.68;;;6.45;;
789;SDS011;378;48.844;9.156;2024-03-17T09:46:22;13.43;;;8.02;;
789;SDS011;378;48.844;9.156;2024-03-17T09:48:48;9.70;;;6.72;;
789;SDS011;378;48.844;9.156;2024-03-17T09:51:19;8.38;;;6.10;;
789;SDS011;378;48.844;9.156;2024-03-17T09:53:49;9.32;;;6.05;;
789;SDS011;378;48.844;9.156;2024-03-17T09:56:16;12.63;;;7.57;;
789;SDS011;378;48.844;9.156;2024-03-17T09:58:45;7.47;;;5.68;;
789;SDS011;378;48.844;9.156;2024-03-17T10:01:15;8.45;;;5.55;;
789;SDS011;378;48.844;9.156;2024-03-17T10:04:00;8.10;;;5.00;;
789;SDS011;378;48.844;9.156;2024-03-17T12:33:47;3.65;;;2.28;;
789;SDS011;378;48.844;9.156;2024-03-17T12:36:13;5.22;;;2.60;;
789;SDS011;378;48.844;9.156;2024-03-17T12:38:39;3.03;;;2.35;;
789;SDS011;378;48.844;9.156;2024-03-17T12:41:15;4.43;;;2.83;;
789;SDS011;378;48.844;9.156;2024-03-17T12:43:48;5.47;;;2.55;;
789;SDS011;378;48.844;9.156;2024-03-17T12:46:14;4.68;;;2.50;;
789;SDS011;378;48.844;9.156;2024-03-17T12:48:40;6.25;;;2.30;;
789;SDS011;378;48.844;9.156;2024-03-17T12:51:12;5.20;;;2.33;;
789;SDS011;378;48.844;9.156;2024-03-17T12:53:39;2.78;;;2.10;;
789;SDS011;378;48.844;9.156;2024-03-17T12:56:05;3.58;;;2.63;;
789;SDS011;378;48.844;9.156;2024-03-17T12:58:50;4.13;;;2.50;;
789;SDS011;378;48.844;9.156;2024-03-17T13:01:34;3.72;;;2.20;;
789;SDS011;378;48.844;9.156;2024-03-17T13:04:06;3.60;;;2.45;;
789;SDS011;378;48.844;9.156;2024-03-17T13:06:33;4.22;;;3.17;;
789;SDS011;378;48.844;9.156;2024-03-17T13:08:59;4.13;;;3.13;;
789;SDS011;378;48.844;9.156;2024-03-17T13:11:27;4.97;;;2.65;;
789;SDS011;378;48.844;9.156;2024-03-17T13:13:55;4.40;;;2.60;;
789;SDS011;378;48.844;9.156;2024-03-17T13:16:21;6.47;;;3.00;;
789;SDS011;378;48.844;9.156;2024-03-17T13:18:47;5.32;;;2.75;;
789;SDS011;378;48.844;9.156;2024-03-17T13:21:17;6.63;;;2.88;;
789;SDS011;378;48.844;9.156;2024-03-17T13:23:44;5.70;;;3.20;;
789;SDS011;378;48.844;9.156;2024-03-17T13:26:10;4.15;;;2.67;;
789;SDS011;378;48.844;9.156;2024-03-17T13:28:36;4.43;;;2.42;;
789;SDS011;378;48.844;9.156;2024-03-17T13:31:01;3.95;;;2.42;;
789;SDS011;378;48.844;9.156;2024-03-17T13:33:29;5.72;;;2.58;;
789;SDS011;378;48.844;9.156;2024-03-17T13:35:55;3.50;;;2.22;;
789;SDS011;378;48.844;9.156;2024-03-17T13:38:21;4.15;;;2.33;;
789;SDS011;378;48.844;9.156;2024-03-17T13:40:47;5.57;;;2.92;;
789;SDS011;378;48.844;9.156;2024-03-17T13:43:13;7.53;;;3.55;;
789;SDS011;378;48.844;9.156;2024-03-17T13:45:40;4.75;;;3.00;;
789;SDS011;378;48.844;9.156;2024-03-17T13:48:12;4.25;;;2.90;;
789;SDS011;378;48.844;9.156;2024-03-17T13:50:39;5.10;;;3.15;;
789;SDS011;378;48.844;9.156;2024-03-17T13:53:07;3.67;;;2.80;;
789;SDS011;378;48.844;9.156;2024-03-17T13:55:36;4.47;;;2.92;;
789;SDS011;378;48.844;9.156;2024-03-17T13:58:03;3.40;;;2.45;;
789;SDS011;378;48.844;9.156;2024-03-17T14:00:29;3.67;;;2.20;;
789;SDS011;378;48.844;9.156;2024-03-17T14:02:57;6.03;;;2.83;;
789;SDS011;378;48.844;9.156;2024-03-17T14:05:23;4.25;;;3.05;;
789;SDS011;378;48.844;9.156;2024-03-17T14:07:51;3.58;;;2.42;;
789;SDS011;378;48.844;9.156;2024-03-17T14:10:19;4.47;;;2.55;;
789;SDS011;378;48.844;9.156;2024-03-17T14:12:47;4.82;;;2.60;;
789;SDS011;378;48.844;9.156;2024-03-17T14:15:14;3.25;;;2.22;;
789;SDS011;378;48.844;9.156;2024-03-17T14:17:41;6.00;;;2.67;;
789;SDS011;378;48.844;9.156;2024-03-17T14:20:11;4.50;;;2.85;;
789;SDS011;378;48.844;9.156;2024-03-17T14:22:40;3.47;;;2.10;;
789;SDS011;378;48.844;9.156;2024-03-17T14:25:07;4.22;;;2.60;;
789;SDS011;378;48.844;9.156;2024-03-17T14:27:46;3.67;;;2.85;;
789;SDS011;378;48.844;9.156;2024-03-17T14:30:14;4.65;;;2.55;;
789;SDS011;378;48.844;9.156;2024-03-17T14:32:45;5.75;;;3.10;;
789;SDS011;378;48.844;9.156;2024-03-17T14:35:17;5.65;;;2.60;;
789;SDS011;378;48.844;9.156;2024-03-17T14:37:46;5.35;;;2.83;;
789;SDS011;378;48.844;9.156;2024-03-17T14:40:17;4.57;;;2.60;;
789;SDS011;378;48.844;9.156;2024-03-17T14:42:49;3.25;;;2.40;;
789;SDS011;378;48.844;9.156;2024-03-17T14:45:16;6.60;;;2.70;;
789;SDS011;378;48.844;9.156;2024-03-17T14:47:46;3.90;;;2.47;;
789;SDS011;378;48.844;9.156;2024-03-17T14:50:11;4.28;;;2.30;;
789;SDS011;378;48.844;9.156;2024-03-17T14:52:38;5.18;;;2.30;;
789;SDS011;378;48.844;9.156;2024-03-17T14:55:06;3.92;;;2.30;;
789;SDS011;378;48.844;9.156;2024-03-17T14:57:35;4.90;;;2.08;;
789;SDS011;378;48.844;9.156;2024-03-17T15:00:04;4.38;;;2.75;;
789;SDS011;378;48.844;9.156;2024-03-17T15:02:45;10.25;;;2.75;;
789;SDS011;378;48.844;9.156;2024-03-17T15:05:15;5.45;;;2.63;;
789;SDS011;378;48.844;9.156;2024-03-17T15:07:45;6.75;;;2.90;;
789;SDS011;378;48.844;9.156;2024-03-17T15:10:11;4.82;;;2.88;;
789;SDS011;378;48.844;9.156;2024-03-17T15:12:46;5.82;;;2.63;;
789;SDS011;378;48.844;9.156;2024-03-17T15:15:13;8.48;;;2.92;;
789;SDS011;378;48.844;9.156;2024-03-17T15:17:39;6.85;;;3.22;;
789;SDS011;378;48.844;9.156;2024-03-17T15:20:06;4.75;;;2.40;;
789;SDS011;378;48.844;9.156;2024-03-17T15:22:47;2.80;;;1.90;;
789;SDS011;378;48.844;9.156;2024-03-17T15:25:17;8.63;;;3.15;;
789;SDS011;378;48.844;9.156;2024-03-17T15:27:45;5.97;;;3.35;;
789;SDS011;378;48.844;9.156;2024-03-17T15:30:12;7.97;;;3.40;;
789;SDS011;378;48.844;9.156;2024-03-17T15:32:40;11.57;;;3.60;;
789;SDS011;378;48.844;9.156;2024-03-17T15:35:09;3.75;;;2.40;;
789;SDS011;378;48.844;9.156;2024-03-17T15:37:38;6.68;;;3.53;;
789;SDS011;378;48.844;9.156;2024-03-17T15:40:05;6.28;;;3.53;;
789;SDS011;378;48.844;9.156;2024-03-17T15:42:32;4.30;;;2.40;;
789;SDS011;378;48.844;9.156;2024-03-17T15:44:58;4.40;;;2.72;;
789;SDS011;378;48.844;9.156;2024-03-17T15:47:25;4.10;;;2.28;;
789;SDS011;378;48.844;9.156;2024-03-17T15:49:51;7.85;;;3.92;;
789;SDS011;378;48.844;9.156;2024-03-17T15:52:17;4.25;;;2.97;;
789;SDS011;378;48.844;9.156;2024-03-17T15:54:44;5.05;;;2.45;;
789;SDS011;378;48.844;9.156;2024-03-17T15:57:10;6.53;;;2.75;;
789;SDS011;378;48.844;9.156;2024-03-17T15:59:36;2.92;;;1.90;;
789;SDS011;378;48.844;9.156;2024-03-17T16:02:02;5.88;;;2.85;;
789;SDS011;378;48.844;9.156;2024-03-17T16:04:28;3.90;;;2.30;;
789;SDS011;378;48.844;9.156;2024-03-17T16:06:54;6.50;;;2.72;;
789;SDS011;378;48.844;9.156;2024-03-17T16:09:20;5.53;;;2.55;;
789;SDS011;378;48.844;9.156;2024-03-17T16:11:46;5.78;;;2.70;;
789;SDS011;378;48.844;9.156;2024-03-17T16:14:13;3.72;;;2.40;;
789;SDS011;378;48.844;9.156;2024-03-17T16:16:40;4.60;;;2.60;;
789;SDS011;378;48.844;9.156;2024-03-17T16:19:10;5.30;;;2.40;;
789;SDS011;378;48.844;9.156;2024-03-17T16:21:37;5.22;;;3.20;;
789;SDS011;378;48.844;9.156;2024-03-17T16:24:08;4.00;;;2.70;;
789;SDS011;378;48.844;9.156;2024-03-17T16:26:36;5.00;;;2.30;;
789;SDS011;378;48.844;9.156;2024-03-17T16:29:02;4.00;;;2.25;;
789;SDS011;378;48.844;9.156;2024-03-17T16:31:30;3.70;;;2.20;;
789;SDS011;378;48.844;9.156;2024-03-17T16:33:56;2.72;;;2.17;;
789;SDS011;378;48.844;9.156;2024-03-17T16:36:25;8.63;;;4.20;;
789;SDS011;378;48.844;9.156;2024-03-17T16:38:52;9.50;;;4.10;;
789;SDS011;378;48.844;9.156;2024-03-17T16:41:18;7.43;;;3.45;;
789;SDS011;378;48.844;9.156;2024-03-17T16:43:53;5.68;;;2.70;;
789;SDS011;378;48.844;9.156;2024-03-17T16:49:17;7.65;;;4.30;;
789;SDS011;378;48.844;9.156;2024-03-17T16:51:47;6.05;;;4.05;;
789;SDS011;378;48.844;9.156;2024-03-17T16:54:17;8.27;;;4.00;;
789;SDS011;378;48.844;9.156;2024-03-17T16:56:45;5.93;;;3.20;;
789;SDS011;378;48.844;9.156;2024-03-17T16:59:11;5.35;;;2.90;;
789;SDS011;378;48.844;9.156;2024-03-17T17:01:38;4.57;;;2.53;;
789;SDS011;378;48.844;9.156;2024-03-17T17:04:06;5.82;;;2.35;;
789;SDS011;378;48.844;9.156;2024-03-17T17:06:32;2.72;;;1.75;;
789;SDS011;378;48.844;9.156;2024-03-17T17:08:58;4.38;;;2.47;;
789;SDS011;378;48.844;9.156;2024-03-17T17:11:24;3.38;;;1.95;;
789;SDS011;378;48.844;9.156;2024-03-17T17:13:50;2.92;;;2.20;;
789;SDS011;378;48.844;9.156;2024-03-17T17:16:16;3.00;;;2.17;;
789;SDS011;378;48.844;9.156;2024-03-17T17:18:51;3.22;;;1.80;;
789;SDS011;378;48.844;9.156;2024-03-17T17:21:24;3.45;;;2.13;;
789;SDS011;378;48.844;9.156;2024-03-17T17:23:51;6.90;;;2.40;;
789;SDS011;378;48.844;9.156;2024-03-17T17:26:17;4.57;;;2.20;;
789;SDS011;378;48.844;9.156;2024-03-17T17:28:52;4.30;;;2.03;;
789;SDS011;378;48.844;9.156;2024-03-17T17:31:21;4.28;;;2.38;;
789;SDS011;378;48.844;9.156;2024-03-17T17:33:48;4.28;;;2.00;;
789;SDS011;378;48.844;9.156;2024-03-17T17:36:15;3.63;;;2.20;;
789;SDS011;378;48.844;9.156;2024-03-17T17:38:41;4.47;;;2.08;;
789;SDS011;378;48.844;9.156;2024-03-17T17:41:07;4.50;;;2.20;;
789;SDS011;378;48.844;9.156;2024-03-17T17:43:40;3.83;;;2.13;;
789;SDS011;378;48.844;9.156;2024-03-17T17:46:07;5.38;;;2.42;;
789;SDS011;378;48.844;9.156;2024-03-17T17:48:37;4.47;;;2.17;;
789;SDS011;378;48.844;9.156;2024-03-17T17:51:07;4.50;;;2.17;;
789;SDS011;378;48.844;9.156;2024-03-17T17:53:37;3.45;;;2.10;;
789;SDS011;378;48.844;9.156;2024-03-17T17:56:07;5.43;;;3.08;;
789;SDS011;378;48.844;9.156;2024-03-17T17:58:34;4.88;;;2.60;;
789;SDS011;378;48.844;9.156;2024-03-17T18:01:02;4.07;;;2.70;;
789;SDS011;378;48.844;9.156;2024-03-17T18:03:29;5.28;;;3.00;;
789;SDS011;378;48.844;9.156;2024-03-17T18:05:55;3.60;;;2.55;;
789;SDS011;378;48.844;9.156;2024-03-17T18:08:22;5.63;;;2.65;;
789;SDS011;378;48.844;9.156;2024-03-17T18:10:49;6.38;;;2.75;;
789;SDS011;378;48.844;9.156;2024-03-17T18:13:16;7.40;;;3.13;;
789;SDS011;378;48.844;9.156;2024-03-17T18:15:43;5.35;;;3.10;;
789;SDS011;378;48.844;9.156;2024-03-17T18:18:11;6.28;;;3.10;;